Time;durP1;ratioP1;P1;durP2;ratioP2;P2;SDS_P1;SDS_P2;PMS_P1;PMS_P2;Temp;Humidity;BMP_temperature;BMP_pressure;BME280_temperature;BME280_humidity;BME280_pressure;Samples;Min_cycle;Max_cycle;Signal;HPM_P1;HPM_P2
2023/03/31 00:00:31;;;;;;;2.03;0.90;;;21.20;45.70;;;;;;5072491;28;20186;-64
2023/03/31 00:02:59;;;;;;;2.43;0.90;;;21.30;44.20;;;;;;5070722;28;20246;-66
2023/03/31 00:05:26;;;;;;;1.43;1.00;;;21.40;44.20;;;;;;5070005;28;20186;-65
2023/03/31 00:08:00;;;;;;;1.63;0.80;;;21.60;43.90;;;;;;5071406;28;20215;-65
2023/03/31 00:10:33;;;;;;;3.33;0.90;;;21.80;43.30;;;;;;5069373;28;20637;-66
2023/03/31 00:13:01;;;;;;;2.43;0.80;;;21.90;43.20;;;;;;5067064;28;20579;-64
2023/03/31 00:15:29;;;;;;;0.83;0.70;;;21.80;42.20;;;;;;5065680;28;20180;-65
2023/03/31 00:17:59;;;;;;;2.57;1.00;;;21.80;42.30;;;;;;5071679;28;20211;-75
2023/03/31 00:20:26;;;;;;;1.23;0.90;;;22.00;42.60;;;;;;5070671;28;20206;-64
2023/03/31 00:22:56;;;;;;;1.30;0.80;;;22.10;41.40;;;;;;5070132;28;20741;-64
2023/03/31 00:25:23;;;;;;;2.10;0.83;;;21.80;41.90;;;;;;5063537;28;20179;-66
2023/03/31 00:27:51;;;;;;;0.83;0.80;;;21.90;41.70;;;;;;5073902;28;20191;-64
2023/03/31 00:30:18;;;;;;;1.50;0.70;;;22.20;41.80;;;;;;5068359;28;20206;-67
2023/03/31 00:32:46;;;;;;;4.67;1.00;;;22.30;40.70;;;;;;5070742;28;20221;-65
2023/03/31 00:35:13;;;;;;;2.43;0.70;;;22.40;40.10;;;;;;5075379;28;20210;-64
2023/03/31 00:37:42;;;;;;;1.90;1.00;;;22.50;39.10;;;;;;5067139;28;20183;-71
2023/03/31 00:40:09;;;;;;;2.40;0.80;;;22.70;39.90;;;;;;5069153;28;20226;-63
2023/03/31 00:42:42;;;;;;;9.53;1.00;;;22.80;39.30;;;;;;5072355;28;20563;-66
2023/03/31 00:45:18;;;;;;;2.87;0.87;;;23.00;39.40;;;;;;5069200;28;20281;-65
2023/03/31 00:47:57;;;;;;;3.97;0.70;;;23.00;39.10;;;;;;5065199;28;20183;-64
2023/03/31 00:50:33;;;;;;;2.87;0.70;;;23.20;36.70;;;;;;5069249;28;20183;-69
2023/03/31 00:53:10;;;;;;;1.17;0.80;;;23.20;38.60;;;;;;5062966;28;20253;-67
2023/03/31 00:55:44;;;;;;;1.40;0.70;;;23.40;38.20;;;;;;5066249;28;20175;-68
2023/03/31 00:58:14;;;;;;;2.07;0.60;;;23.30;37.10;;;;;;5067275;28;20182;-64
2023/03/31 01:00:42;;;;;;;0.87;0.63;;;23.30;36.30;;;;;;5070880;28;20529;-66
2023/03/31 01:03:10;;;;;;;5.83;0.80;;;23.50;36.70;;;;;;5072971;28;20171;-67
2023/03/31 01:05:46;;;;;;;1.50;0.70;;;23.50;36.80;;;;;;5068130;28;20697;-66
2023/03/31 01:08:15;;;;;;;4.10;0.90;;;23.40;37.10;;;;;;5075113;28;20288;-65
2023/03/31 01:10:48;;;;;;;0.93;0.50;;;23.40;36.80;;;;;;5084389;28;20239;-65
2023/03/31 01:13:17;;;;;;;4.97;3.97;;;23.50;36.20;;;;;;5065309;28;20219;-68
2023/03/31 01:15:44;;;;;;;0.77;0.57;;;23.40;35.60;;;;;;5063082;28;20172;-69
2023/03/31 01:18:15;;;;;;;2.53;0.60;;;23.50;35.60;;;;;;5070026;28;20262;-69
2023/03/31 01:21:13;;;;;;;1.10;0.60;;;23.60;35.90;;;;;;5066979;28;20190;-69
2023/03/31 01:24:11;;;;;;;1.30;0.60;;;23.90;36.40;;;;;;5047619;28;20253;-67
2023/03/31 01:26:56;;;;;;;1.10;0.70;;;24.30;32.80;;;;;;5072491;28;20210;-74
2023/03/31 01:29:42;;;;;;;0.93;0.50;;;24.30;33.60;;;;;;5075396;28;20187;-67
2023/03/31 01:32:21;;;;;;;4.23;0.50;;;24.30;33.50;;;;;;5061469;28;20308;-68
2023/03/31 01:35:24;;;;;;;1.10;0.60;;;24.30;33.40;;;;;;5068940;28;20178;-67
2023/03/31 01:38:19;;;;;;;1.13;0.60;;;24.20;31.90;;;;;;5072351;28;20221;-66
2023/03/31 01:41:07;;;;;;;2.90;0.80;;;24.30;33.40;;;;;;5070082;28;20203;-65
2023/03/31 01:44:04;;;;;;;1.37;0.80;;;24.60;33.20;;;;;;5071684;28;20191;-65
2023/03/31 01:46:41;;;;;;;1.43;0.50;;;24.50;33.60;;;;;;5073750;28;20600;-65
2023/03/31 01:49:20;;;;;;;0.93;0.60;;;24.70;33.40;;;;;;5072789;28;20703;-63
2023/03/31 01:52:04;;;;;;;0.77;0.40;;;24.80;33.70;;;;;;5069642;28;20198;-64
2023/03/31 01:54:50;;;;;;;0.80;0.50;;;25.00;32.40;;;;;;5072288;28;20193;-62
2023/03/31 01:57:45;;;;;;;2.27;0.70;;;25.00;32.00;;;;;;5071848;28;20673;-64
2023/03/31 02:00:17;;;;;;;1.53;1.00;;;24.90;33.10;;;;;;5074739;28;20175;-64
2023/03/31 02:03:25;;;;;;;0.83;0.70;;;24.80;32.70;;;;;;5072774;28;20191;-64
2023/03/31 02:05:58;;;;;;;0.83;0.40;;;25.10;32.70;;;;;;5063416;28;20187;-64
2023/03/31 02:08:41;;;;;;;1.50;0.80;;;25.30;32.00;;;;;;5073508;28;20230;-65
2023/03/31 02:11:11;;;;;;;1.50;0.70;;;24.90;32.00;;;;;;5073189;28;20195;-67
2023/03/31 02:13:43;;;;;;;2.53;2.33;;;25.60;31.90;;;;;;5053308;28;20619;-65
2023/03/31 02:16:17;;;;;;;1.33;0.80;;;25.90;31.30;;;;;;5065371;28;20179;-65
2023/03/31 02:18:48;;;;;;;1.57;1.20;;;25.80;31.60;;;;;;5074422;28;20197;-64
2023/03/31 02:21:16;;;;;;;1.43;0.70;;;26.00;31.50;;;;;;5075518;28;20179;-65
2023/03/31 02:23:45;;;;;;;1.33;0.50;;;25.90;30.00;;;;;;5075481;28;20174;-63
2023/03/31 02:26:26;;;;;;;1.83;1.30;;;26.00;29.30;;;;;;5071877;28;20185;-64
2023/03/31 02:28:53;;;;;;;1.70;0.60;;;26.00;30.20;;;;;;5070928;28;20179;-64
2023/03/31 02:31:27;;;;;;;1.80;0.67;;;26.30;29.50;;;;;;5074456;28;20187;-66
2023/03/31 02:33:55;;;;;;;1.97;1.73;;;26.40;29.80;;;;;;5056231;28;20183;-65
2023/03/31 02:36:23;;;;;;;2.07;0.80;;;26.50;30.40;;;;;;5063846;28;20268;-66
2023/03/31 02:39:08;;;;;;;2.23;1.30;;;26.20;30.10;;;;;;5070473;28;20595;-66
2023/03/31 02:41:35;;;;;;;3.00;0.87;;;26.20;30.50;;;;;;5076858;28;20232;-65
2023/03/31 02:44:03;;;;;;;3.00;0.50;;;26.30;30.50;;;;;;5075029;28;20191;-65
2023/03/31 02:46:32;;;;;;;2.40;0.80;;;26.70;30.00;;;;;;5074864;28;20174;-65
2023/03/31 02:49:02;;;;;;;3.57;0.53;;;27.10;29.10;;;;;;5073916;28;20650;-66
2023/03/31 02:51:47;;;;;;;1.30;0.57;;;27.30;28.60;;;;;;5071198;28;20261;-64
2023/03/31 02:54:46;;;;;;;3.30;0.50;;;27.10;28.30;;;;;;5074374;28;20585;-65
2023/03/31 02:57:13;;;;;;;1.57;0.47;;;27.10;28.90;;;;;;5046166;28;20260;-65
2023/03/31 02:59:51;;;;;;;2.30;0.50;;;27.90;28.00;;;;;;5073773;28;20215;-65
2023/03/31 03:02:48;;;;;;;0.50;0.50;;;27.90;26.10;;;;;;5074101;28;20825;-65
2023/03/31 03:05:19;;;;;;;0.90;0.70;;;27.80;26.40;;;;;;5073431;28;20218;-67
2023/03/31 03:08:19;;;;;;;1.27;0.50;;;28.10;26.90;;;;;;5069074;28;20685;-66
2023/03/31 03:11:10;;;;;;;1.23;0.98;;;27.40;28.90;;;;;;5033114;28;20295;-70
2023/03/31 03:14:26;;;;;;;2.87;0.63;;;26.90;29.30;;;;;;5069130;28;20199;-67
2023/03/31 03:17:32;;;;;;;2.77;0.70;;;27.70;28.90;;;;;;5050168;28;20669;-65
2023/03/31 03:20:06;;;;;;;4.13;0.63;;;28.50;27.50;;;;;;5043968;28;20202;-70
2023/03/31 03:22:36;;;;;;;0.82;0.60;;;28.60;28.50;;;;;;5059908;28;20194;-66
2023/03/31 03:25:09;;;;;;;2.93;0.60;;;29.40;27.10;;;;;;5072981;28;20191;-67
2023/03/31 03:27:37;;;;;;;1.55;0.60;;;29.00;27.40;;;;;;5073471;28;20183;-65
2023/03/31 03:30:06;;;;;;;3.95;0.63;;;29.00;27.40;;;;;;5056015;28;20263;-69
2023/03/31 03:32:34;;;;;;;0.55;0.40;;;29.80;26.80;;;;;;5069840;28;20223;-70
2023/03/31 03:35:03;;;;;;;0.90;0.60;;;29.30;26.50;;;;;;5073731;28;20194;-66
2023/03/31 03:37:31;;;;;;;1.83;0.60;;;29.20;27.10;;;;;;5073594;28;20547;-66
2023/03/31 03:39:59;;;;;;;0.68;0.52;;;26.90;30.80;;;;;;5072054;28;20244;-69
2023/03/31 03:42:26;;;;;;;3.65;0.47;;;26.80;30.60;;;;;;5073608;28;20183;-67
2023/03/31 03:44:54;;;;;;;0.73;0.60;;;27.90;28.60;;;;;;5073457;28;20658;-69
2023/03/31 03:47:21;;;;;;;1.17;0.77;;;28.30;30.20;;;;;;5072032;28;20183;-66
2023/03/31 03:49:48;;;;;;;1.88;0.68;;;28.60;30.70;;;;;;5073044;28;20680;-67
2023/03/31 03:52:16;;;;;;;6.00;0.70;;;28.40;31.30;;;;;;5073023;28;20195;-69
2023/03/31 03:54:44;;;;;;;2.67;0.52;;;28.60;31.20;;;;;;5072207;28;20186;-70
2023/03/31 03:57:11;;;;;;;1.55;0.55;;;28.70;31.30;;;;;;5073093;28;20175;-66
2023/03/31 03:59:38;;;;;;;0.75;0.60;;;28.90;29.60;;;;;;5072660;28;20179;-68
2023/03/31 04:02:06;;;;;;;1.75;0.52;;;29.00;29.80;;;;;;5072300;28;20274;-68
2023/03/31 04:04:33;;;;;;;4.65;0.52;;;29.10;29.50;;;;;;5072487;28;20187;-66
2023/03/31 04:07:00;;;;;;;2.78;0.90;;;28.80;30.20;;;;;;5072684;28;20213;-66
2023/03/31 04:09:28;;;;;;;0.95;0.68;;;28.30;31.20;;;;;;5072666;28;20183;-69
2023/03/31 04:11:55;;;;;;;3.40;0.50;;;28.00;31.40;;;;;;5072401;28;20212;-68
2023/03/31 04:14:24;;;;;;;1.33;0.70;;;28.90;30.70;;;;;;5073314;28;20706;-66
2023/03/31 04:16:51;;;;;;;1.70;0.70;;;29.30;30.00;;;;;;5072972;28;20634;-68
2023/03/31 04:19:20;;;;;;;1.25;0.60;;;28.90;29.90;;;;;;5073229;28;20657;-70
2023/03/31 04:21:57;;;;;;;2.10;0.57;;;29.30;30.30;;;;;;5072878;28;20178;-68
2023/03/31 04:24:31;;;;;;;0.60;0.50;;;29.70;29.10;;;;;;5073082;28;20274;-69
2023/03/31 04:27:01;;;;;;;2.17;0.60;;;28.90;30.00;;;;;;5072763;28;20182;-70
2023/03/31 04:29:32;;;;;;;1.83;0.50;;;28.90;29.50;;;;;;5063576;28;20270;-67
2023/03/31 04:32:00;;;;;;;1.38;0.60;;;28.90;30.00;;;;;;5069496;28;20203;-66
2023/03/31 04:34:33;;;;;;;2.25;1.85;;;28.80;30.00;;;;;;5072342;28;20171;-67
2023/03/31 04:37:02;;;;;;;1.85;0.93;;;28.50;30.60;;;;;;5072575;28;20171;-67
2023/03/31 04:39:30;;;;;;;1.88;0.80;;;29.50;29.30;;;;;;5073034;28;20183;-72
2023/03/31 04:41:59;;;;;;;1.30;0.60;;;29.30;29.70;;;;;;5072723;28;20266;-68
2023/03/31 04:44:27;;;;;;;0.75;0.68;;;29.60;29.30;;;;;;5072584;28;20195;-73
2023/03/31 04:46:55;;;;;;;2.00;0.50;;;29.60;29.20;;;;;;5064584;28;20187;-68
2023/03/31 04:49:23;;;;;;;0.70;0.60;;;29.60;29.60;;;;;;5070266;28;20171;-70
2023/03/31 04:51:50;;;;;;;1.88;0.50;;;28.50;30.10;;;;;;5068846;28;20734;-68
2023/03/31 04:54:17;;;;;;;0.57;0.43;;;28.90;30.00;;;;;;5072289;28;20237;-69
2023/03/31 04:56:45;;;;;;;3.83;0.73;;;28.60;30.00;;;;;;5073090;28;20266;-68
2023/03/31 04:59:12;;;;;;;0.88;0.50;;;29.30;30.50;;;;;;5072732;28;20171;-67
2023/03/31 05:01:44;;;;;;;2.78;0.40;;;31.00;27.70;;;;;;5070275;28;20550;-68
2023/03/31 05:04:11;;;;;;;4.00;0.63;;;31.30;27.30;;;;;;5064636;28;20702;-68
2023/03/31 05:06:38;;;;;;;0.85;0.35;;;31.20;26.80;;;;;;5072178;28;20183;-67
2023/03/31 05:09:08;;;;;;;1.10;0.40;;;30.20;27.60;;;;;;5065485;28;20219;-70
2023/03/31 05:11:36;;;;;;;0.95;0.50;;;29.40;28.70;;;;;;5069684;28;20199;-68
2023/03/31 05:14:04;;;;;;;1.83;0.65;;;29.40;28.60;;;;;;5071136;28;20199;-68
2023/03/31 05:16:31;;;;;;;1.95;0.63;;;29.80;29.10;;;;;;5071308;28;20180;-70
2023/03/31 05:18:59;;;;;;;3.60;0.45;;;30.80;27.30;;;;;;5064299;28;20203;-67
2023/03/31 05:21:29;;;;;;;0.70;0.60;;;31.20;26.80;;;;;;5071731;28;20322;-70
2023/03/31 05:23:56;;;;;;;0.77;0.40;;;30.60;27.80;;;;;;5068342;28;20526;-71
2023/03/31 05:26:25;;;;;;;2.92;0.60;;;29.90;28.30;;;;;;5068387;28;20187;-66
2023/03/31 05:28:53;;;;;;;1.17;0.60;;;29.00;29.00;;;;;;5069393;28;20247;-67
2023/03/31 05:31:20;;;;;;;1.33;0.60;;;28.00;30.50;;;;;;5067843;28;20179;-67
2023/03/31 05:33:48;;;;;;;3.45;0.47;;;28.30;31.20;;;;;;5072430;28;20191;-69
2023/03/31 05:36:17;;;;;;;2.25;0.50;;;29.50;29.70;;;;;;5072027;28;20178;-66
2023/03/31 05:38:46;;;;;;;0.57;0.40;;;29.80;29.50;;;;;;5074620;28;20704;-66
2023/03/31 05:41:15;;;;;;;0.52;0.50;;;29.30;28.80;;;;;;5054926;28;20663;-67
2023/03/31 05:43:43;;;;;;;1.83;0.70;;;29.70;29.20;;;;;;5067731;28;20179;-68
2023/03/31 05:46:10;;;;;;;2.35;0.73;;;30.80;27.70;;;;;;5070469;28;20533;-67
2023/03/31 05:48:37;;;;;;;1.13;0.40;;;30.20;28.70;;;;;;5077841;28;20179;-66
2023/03/31 05:51:05;;;;;;;0.57;0.50;;;31.20;27.60;;;;;;5069089;28;20175;-67
2023/03/31 05:53:32;;;;;;;1.52;0.50;;;30.00;28.60;;;;;;5069392;28;20268;-67
2023/03/31 05:56:02;;;;;;;2.63;0.70;;;29.50;28.30;;;;;;5057001;28;20212;-68
2023/03/31 05:58:30;;;;;;;1.15;0.85;;;29.60;29.20;;;;;;5071307;28;20191;-67
2023/03/31 06:01:04;;;;;;;1.83;0.43;;;28.90;29.90;;;;;;5075686;28;20539;-69
2023/03/31 06:03:34;;;;;;;3.58;0.50;;;28.70;29.90;;;;;;5067917;28;20188;-69
2023/03/31 06:06:01;;;;;;;1.38;0.57;;;28.10;30.40;;;;;;5071740;28;20236;-68
2023/03/31 06:08:29;;;;;;;0.60;0.50;;;27.90;30.40;;;;;;5068076;28;20223;-67
2023/03/31 06:10:57;;;;;;;0.60;0.47;;;26.80;31.90;;;;;;5072628;28;20179;-68
2023/03/31 06:13:25;;;;;;;1.43;0.47;;;27.60;31.70;;;;;;5081626;28;20562;-69
2023/03/31 06:16:00;;;;;;;2.27;0.67;;;27.30;31.60;;;;;;5075142;28;20175;-68
2023/03/31 06:18:29;;;;;;;2.10;0.60;;;27.00;32.60;;;;;;5071878;28;20186;-69
2023/03/31 06:20:57;;;;;;;3.05;1.38;;;27.80;31.50;;;;;;5074868;28;20178;-69
2023/03/31 06:23:25;;;;;;;1.15;0.65;;;28.30;30.90;;;;;;5068050;28;20195;-69
2023/03/31 06:25:53;;;;;;;1.42;0.65;;;28.30;30.90;;;;;;5074745;28;20265;-68
2023/03/31 06:28:21;;;;;;;1.33;0.50;;;27.50;32.50;;;;;;5072211;28;20214;-67
2023/03/31 06:30:49;;;;;;;1.23;0.60;;;27.70;31.60;;;;;;5081652;28;20183;-69
2023/03/31 06:33:16;;;;;;;1.70;0.50;;;26.80;33.60;;;;;;5075755;28;20676;-67
2023/03/31 06:35:43;;;;;;;1.10;0.60;;;25.70;35.20;;;;;;5073389;28;20183;-69
2023/03/31 06:38:11;;;;;;;1.87;0.70;;;25.50;36.40;;;;;;5073533;28;20187;-72
2023/03/31 06:40:38;;;;;;;2.17;0.43;;;26.70;34.30;;;;;;5054873;28;20178;-67
2023/03/31 06:43:05;;;;;;;0.47;0.47;;;27.00;33.80;;;;;;5070724;28;20225;-68
2023/03/31 06:45:32;;;;;;;1.00;0.50;;;26.10;35.50;;;;;;5065344;28;20183;-66
2023/03/31 06:48:00;;;;;;;1.00;0.60;;;25.40;36.30;;;;;;5080008;28;20232;-67
2023/03/31 06:50:27;;;;;;;1.13;0.53;;;25.00;38.00;;;;;;5080408;28;20183;-66
2023/03/31 06:52:55;;;;;;;0.83;0.60;;;24.70;38.50;;;;;;5070461;28;20206;-67
2023/03/31 06:55:22;;;;;;;2.60;0.60;;;24.60;39.70;;;;;;5074623;28;20179;-70
2023/03/31 06:57:50;;;;;;;1.43;0.70;;;24.60;39.10;;;;;;5065843;28;20183;-66
2023/03/31 07:00:18;;;;;;;1.53;0.70;;;24.50;39.20;;;;;;5071260;28;20179;-67
2023/03/31 07:02:45;;;;;;;0.70;0.47;;;23.90;40.60;;;;;;5068285;28;20597;-67
2023/03/31 07:05:12;;;;;;;1.80;0.60;;;23.70;40.70;;;;;;5073098;28;20221;-72
2023/03/31 07:07:40;;;;;;;0.73;0.60;;;23.70;40.90;;;;;;5071606;28;20219;-70
2023/03/31 07:10:07;;;;;;;0.83;0.50;;;23.50;41.10;;;;;;5063456;28;20202;-67
2023/03/31 07:12:35;;;;;;;0.97;0.60;;;23.40;41.70;;;;;;5068832;28;20570;-67
2023/03/31 07:15:02;;;;;;;0.70;0.70;;;23.30;41.60;;;;;;5069103;28;20179;-65
2023/03/31 07:17:30;;;;;;;1.10;0.60;;;23.20;41.90;;;;;;5061109;28;20184;-66
2023/03/31 07:19:57;;;;;;;0.73;0.60;;;23.30;41.70;;;;;;5059152;28;20176;-67
2023/03/31 07:22:25;;;;;;;1.17;0.63;;;23.30;42.20;;;;;;5071342;28;20649;-68
2023/03/31 07:24:52;;;;;;;1.40;0.60;;;23.20;42.60;;;;;;5063614;28;20176;-67
2023/03/31 07:27:19;;;;;;;0.80;0.70;;;23.00;42.50;;;;;;5068181;28;20190;-68
2023/03/31 07:29:47;;;;;;;1.10;0.67;;;22.90;43.50;;;;;;5073756;28;20194;-65
2023/03/31 07:32:14;;;;;;;2.93;0.63;;;22.90;43.20;;;;;;5067068;28;20586;-67
2023/03/31 07:34:44;;;;;;;1.10;0.80;;;22.80;44.10;;;;;;5060074;28;20184;-66
2023/03/31 07:37:12;;;;;;;1.30;0.60;;;22.80;44.40;;;;;;5069056;28;20207;-64
2023/03/31 07:39:39;;;;;;;1.47;0.53;;;22.80;45.00;;;;;;5076837;28;20222;-65
2023/03/31 07:42:06;;;;;;;2.40;0.90;;;22.80;44.90;;;;;;5060623;28;20176;-67
2023/03/31 07:44:35;;;;;;;0.97;0.50;;;22.80;44.90;;;;;;5072866;28;20175;-67
2023/03/31 07:47:04;;;;;;;2.10;0.53;;;22.60;45.20;;;;;;5072096;28;20221;-67
2023/03/31 07:49:33;;;;;;;1.27;0.70;;;22.60;45.50;;;;;;5068177;28;20569;-69
2023/03/31 07:52:01;;;;;;;0.80;0.70;;;22.60;45.80;;;;;;5070514;28;20202;-68
2023/03/31 07:54:29;;;;;;;0.97;0.70;;;22.50;45.80;;;;;;5064861;28;20192;-66
2023/03/31 07:57:00;;;;;;;2.10;0.93;;;22.50;46.10;;;;;;5069290;28;20258;-67
2023/03/31 07:59:29;;;;;;;0.87;0.80;;;22.30;46.50;;;;;;5072402;28;20194;-67
2023/03/31 08:01:56;;;;;;;3.10;0.90;;;22.30;47.00;;;;;;5071135;28;20226;-67
2023/03/31 08:04:24;;;;;;;1.63;1.20;;;22.30;47.00;;;;;;5072625;28;20187;-67
2023/03/31 08:06:51;;;;;;;2.67;1.40;;;22.30;47.30;;;;;;5073154;28;20544;-67
2023/03/31 08:09:19;;;;;;;3.37;1.10;;;22.30;47.40;;;;;;5074948;28;20226;-66
2023/03/31 08:11:46;;;;;;;3.07;0.80;;;22.20;47.90;;;;;;5068426;28;20234;-67
2023/03/31 08:14:14;;;;;;;0.90;0.70;;;22.00;48.10;;;;;;5063910;28;20187;-68
2023/03/31 08:16:41;;;;;;;1.50;0.90;;;22.00;48.20;;;;;;5086255;28;20645;-65
2023/03/31 08:19:09;;;;;;;1.17;0.70;;;21.90;48.70;;;;;;5070964;28;20235;-68
2023/03/31 08:21:36;;;;;;;2.93;1.03;;;21.80;48.70;;;;;;5070589;28;20231;-68
2023/03/31 08:24:05;;;;;;;2.20;1.17;;;21.90;48.80;;;;;;5059856;28;20179;-69
2023/03/31 08:26:33;;;;;;;1.23;1.00;;;21.90;48.90;;;;;;5070248;28;20665;-65
2023/03/31 08:29:02;;;;;;;2.80;1.00;;;21.90;48.80;;;;;;5070109;28;20187;-72
2023/03/31 08:31:30;;;;;;;3.00;1.53;;;22.00;48.70;;;;;;5069549;28;20186;-68
2023/03/31 08:33:57;;;;;;;3.37;1.30;;;22.00;48.80;;;;;;5072062;28;20225;-67
2023/03/31 08:36:26;;;;;;;2.57;1.43;;;22.00;49.10;;;;;;5072619;28;20630;-71
2023/03/31 08:38:53;;;;;;;1.60;1.00;;;22.00;49.30;;;;;;5072738;28;20190;-69
2023/03/31 08:41:29;;;;;;;3.07;1.20;;;22.00;49.30;;;;;;5071260;28;20170;-65
2023/03/31 08:43:59;;;;;;;2.03;1.00;;;22.00;49.40;;;;;;5071632;28;20175;-68
2023/03/31 08:46:29;;;;;;;3.63;1.13;;;22.00;48.90;;;;;;5069184;28;20198;-66
2023/03/31 08:49:00;;;;;;;1.53;1.17;;;21.90;49.40;;;;;;5082530;28;20179;-68
2023/03/31 08:51:40;;;;;;;2.40;1.20;;;21.90;49.60;;;;;;5069462;28;20638;-69
2023/03/31 08:54:39;;;;;;;2.00;1.33;;;21.80;50.00;;;;;;5072721;28;20190;-67
2023/03/31 08:57:17;;;;;;;5.37;1.40;;;21.70;49.90;;;;;;5071880;28;20190;-69
2023/03/31 08:59:45;;;;;;;2.10;1.40;;;21.50;49.60;;;;;;5071048;28;21041;-66
2023/03/31 09:02:48;;;;;;;2.40;1.30;;;21.50;49.40;;;;;;5067778;28;20187;-67
2023/03/31 09:05:41;;;;;;;3.27;1.03;;;21.40;49.90;;;;;;5066110;28;20269;-68
2023/03/31 09:08:33;;;;;;;2.87;1.20;;;21.30;49.80;;;;;;5071795;28;20257;-71
2023/03/31 09:11:13;;;;;;;1.50;0.97;;;21.30;49.60;;;;;;5066477;28;20273;-68
2023/03/31 09:13:54;;;;;;;1.63;1.07;;;21.30;49.80;;;;;;5070808;28;20272;-66
2023/03/31 09:16:33;;;;;;;2.53;1.23;;;21.20;49.40;;;;;;5063799;28;20183;-67
2023/03/31 09:19:02;;;;;;;1.80;1.10;;;21.20;49.60;;;;;;5066958;28;20261;-66
2023/03/31 09:21:42;;;;;;;1.53;1.20;;;21.20;49.70;;;;;;5081277;28;20553;-67
2023/03/31 09:24:45;;;;;;;4.37;1.53;;;21.10;50.10;;;;;;5072267;28;20258;-66
2023/03/31 09:27:14;;;;;;;2.23;1.27;;;21.10;50.40;;;;;;5060905;28;20210;-68
2023/03/31 09:29:47;;;;;;;1.70;1.20;;;21.20;50.90;;;;;;5071812;28;20183;-70
2023/03/31 09:32:24;;;;;;;1.63;1.27;;;21.20;51.00;;;;;;5072253;28;20264;-66
2023/03/31 09:35:01;;;;;;;3.73;1.47;;;21.20;51.10;;;;;;5070866;28;20179;-67
2023/03/31 09:37:32;;;;;;;3.27;1.13;;;21.10;51.20;;;;;;5062368;28;20186;-65
2023/03/31 09:40:06;;;;;;;3.47;1.63;;;21.10;51.50;;;;;;5071959;28;20266;-66
2023/03/31 09:42:35;;;;;;;2.47;1.50;;;21.10;51.70;;;;;;5061778;28;20278;-71
2023/03/31 09:45:03;;;;;;;3.40;1.63;;;21.00;52.40;;;;;;5071890;28;20254;-67
2023/03/31 09:47:43;;;;;;;6.50;1.90;;;20.90;53.20;;;;;;5075882;28;20241;-66
2023/03/31 09:50:11;;;;;;;4.67;1.80;;;20.90;53.40;;;;;;5074973;28;20666;-68
2023/03/31 09:52:48;;;;;;;3.40;1.67;;;20.80;54.40;;;;;;5071029;28;20203;-69
2023/03/31 09:55:36;;;;;;;4.77;2.10;;;20.90;54.70;;;;;;5072308;28;20183;-73
2023/03/31 09:58:07;;;;;;;3.60;2.50;;;20.90;54.70;;;;;;5068030;28;20199;-66
2023/03/31 10:00:35;;;;;;;3.57;1.90;;;20.90;55.30;;;;;;5075546;28;20259;-67
2023/03/31 10:03:07;;;;;;;3.63;2.43;;;20.90;55.00;;;;;;5074762;28;20721;-68
2023/03/31 10:05:42;;;;;;;2.37;1.90;;;21.00;55.00;;;;;;5070536;28;20218;-74
2023/03/31 10:08:30;;;;;;;4.37;2.40;;;20.90;55.00;;;;;;5074153;28;20280;-66
2023/03/31 10:11:05;;;;;;;4.07;2.30;;;21.00;54.90;;;;;;5072720;28;20194;-68
2023/03/31 10:13:57;;;;;;;5.17;2.00;;;21.00;54.80;;;;;;5074437;28;20684;-66
2023/03/31 10:16:32;;;;;;;4.37;2.30;;;21.10;54.70;;;;;;5067092;28;20540;-73
2023/03/31 10:19:29;;;;;;;4.37;2.90;;;21.10;54.40;;;;;;5072280;28;20186;-72
2023/03/31 10:22:03;;;;;;;4.23;2.10;;;21.10;54.00;;;;;;5070648;28;20285;-75
2023/03/31 10:24:38;;;;;;;3.93;2.60;;;21.10;53.60;;;;;;5073944;28;20673;-74
2023/03/31 10:27:13;;;;;;;3.47;1.93;;;21.10;53.70;;;;;;5062358;28;20184;-70
2023/03/31 10:29:40;;;;;;;3.67;1.70;;;21.10;54.00;;;;;;5066336;28;20187;-75
2023/03/31 10:32:29;;;;;;;4.30;2.10;;;21.20;54.00;;;;;;5074943;28;20669;-67
2023/03/31 10:35:03;;;;;;;4.00;2.37;;;21.10;54.10;;;;;;5062163;28;20635;-71
2023/03/31 10:37:30;;;;;;;4.27;2.13;;;21.10;54.70;;;;;;5074349;28;20183;-66
2023/03/31 10:40:18;;;;;;;3.07;1.83;;;21.10;55.30;;;;;;5073909;28;20175;-73
2023/03/31 10:42:50;;;;;;;2.90;1.70;;;21.00;54.70;;;;;;5073483;28;20533;-74
2023/03/31 10:45:35;;;;;;;5.37;2.53;;;21.00;55.00;;;;;;5073887;28;20178;-67
2023/03/31 10:48:03;;;;;;;3.47;1.83;;;21.00;56.00;;;;;;5074952;28;20179;-70
2023/03/31 10:50:35;;;;;;;4.30;2.20;;;21.00;56.20;;;;;;5075075;28;20257;-66
2023/03/31 10:53:12;;;;;;;2.80;1.67;;;20.90;55.70;;;;;;5074788;28;20214;-70
2023/03/31 10:56:01;;;;;;;3.53;1.93;;;20.90;55.90;;;;;;5074525;28;20182;-72
2023/03/31 10:58:36;;;;;;;3.67;1.67;;;20.90;55.90;;;;;;5074893;28;20172;-67
2023/03/31 11:01:48;;;;;;;3.07;2.00;;;20.80;55.50;;;;;;5074200;28;20174;-73
2023/03/31 11:04:49;;;;;;;3.03;1.50;;;20.80;56.10;;;;;;5032353;28;20184;-66
2023/03/31 11:07:43;;;;;;;2.50;1.50;;;20.80;54.70;;;;;;5032435;28;20193;-67
2023/03/31 11:10:48;;;;;;;3.00;1.53;;;20.80;55.80;;;;;;5061481;28;20190;-67
2023/03/31 11:13:34;;;;;;;4.97;1.60;;;20.80;55.50;;;;;;5075843;28;20221;-71
2023/03/31 11:16:38;;;;;;;1.33;1.10;;;20.70;54.50;;;;;;5075416;28;20232;-69
2023/03/31 11:19:34;;;;;;;3.03;1.40;;;20.70;54.20;;;;;;5075818;28;20189;-71
2023/03/31 11:22:20;;;;;;;5.63;2.00;;;20.70;54.30;;;;;;5074686;28;20228;-69
2023/03/31 11:25:11;;;;;;;2.23;1.23;;;20.70;54.60;;;;;;5075770;28;20178;-75
2023/03/31 11:27:41;;;;;;;11.47;1.60;;;20.70;54.70;;;;;;5068404;28;20179;-72
2023/03/31 11:30:31;;;;;;;2.33;1.40;;;20.70;54.90;;;;;;5076168;28;20176;-74
2023/03/31 11:32:58;;;;;;;3.43;1.30;;;20.60;55.20;;;;;;5075695;28;20199;-73
2023/03/31 11:35:36;;;;;;;2.37;1.57;;;20.60;55.40;;;;;;5069112;28;20188;-72
2023/03/31 11:38:30;;;;;;;5.23;1.63;;;20.50;55.60;;;;;;5067331;28;20185;-72
2023/03/31 11:41:13;;;;;;;2.40;1.60;;;20.50;55.80;;;;;;5074431;28;20645;-73
2023/03/31 11:44:02;;;;;;;2.13;1.40;;;20.40;55.80;;;;;;5074385;28;20211;-68
2023/03/31 11:46:49;;;;;;;2.80;1.40;;;20.30;55.80;;;;;;5070523;28;20280;-76
2023/03/31 11:49:24;;;;;;;2.33;1.40;;;20.30;56.10;;;;;;5066521;28;20192;-75
2023/03/31 11:52:08;;;;;;;2.07;1.40;;;20.30;56.60;;;;;;5059846;28;20360;-72
2023/03/31 11:54:41;;;;;;;3.00;1.40;;;20.20;56.70;;;;;;5067748;28;20190;-74
2023/03/31 11:57:20;;;;;;;1.73;1.00;;;20.20;57.10;;;;;;5072578;28;20199;-70
2023/03/31 11:59:56;;;;;;;3.13;1.27;;;20.10;57.40;;;;;;5063406;28;20175;-73
2023/03/31 12:02:46;;;;;;;2.00;1.20;;;20.10;57.40;;;;;;5072259;28;20324;-64
2023/03/31 12:05:16;;;;;;;5.07;1.20;;;20.10;56.70;;;;;;5059786;28;20225;-64
2023/03/31 12:08:01;;;;;;;4.40;1.10;;;20.00;56.90;;;;;;5071690;28;20235;-65
2023/03/31 12:11:09;;;;;;;1.90;0.90;;;20.00;56.90;;;;;;5073654;28;20175;-64
2023/03/31 12:13:52;;;;;;;3.20;1.40;;;20.00;56.70;;;;;;5053501;28;20218;-64
2023/03/31 12:16:40;;;;;;;4.27;1.43;;;19.90;56.80;;;;;;5073131;28;20240;-66
2023/03/31 12:19:31;;;;;;;2.67;1.10;;;19.90;56.70;;;;;;5073084;28;20216;-64
2023/03/31 12:22:12;;;;;;;1.80;1.03;;;19.90;56.20;;;;;;5073025;28;20178;-66
2023/03/31 12:24:40;;;;;;;2.17;1.40;;;19.90;56.40;;;;;;5069725;28;20187;-65
2023/03/31 12:27:41;;;;;;;2.20;1.20;;;19.90;55.70;;;;;;5072583;28;20167;-65
2023/03/31 12:30:20;;;;;;;1.30;1.00;;;19.80;55.70;;;;;;5071062;28;20642;-66
2023/03/31 12:32:54;;;;;;;2.20;1.03;;;19.80;55.10;;;;;;5072627;28;20559;-65
2023/03/31 12:35:34;;;;;;;1.63;1.00;;;19.70;55.50;;;;;;5071773;28;20175;-64
2023/03/31 12:38:07;;;;;;;1.60;1.27;;;19.70;55.90;;;;;;5072241;28;20197;-66
2023/03/31 12:40:59;;;;;;;1.20;1.10;;;19.70;55.10;;;;;;5071100;28;20524;-72
2023/03/31 12:43:47;;;;;;;1.90;1.23;;;19.50;54.90;;;;;;5071304;28;20176;-66
2023/03/31 12:46:24;;;;;;;2.73;1.33;;;19.50;54.90;;;;;;5072659;28;20187;-65
2023/03/31 12:49:01;;;;;;;1.67;1.00;;;19.40;55.10;;;;;;5072630;28;20178;-65
2023/03/31 12:52:11;;;;;;;1.30;1.20;;;19.40;55.00;;;;;;5069825;28;20183;-64
2023/03/31 12:55:15;;;;;;;2.20;1.30;;;19.30;54.80;;;;;;5025269;28;20216;-65
2023/03/31 12:57:42;;;;;;;1.57;1.20;;;19.30;55.20;;;;;;5019642;28;20204;-65
2023/03/31 13:00:21;;;;;;;2.13;1.40;;;19.20;55.30;;;;;;5057760;28;20187;-64
2023/03/31 13:02:50;;;;;;;2.50;1.37;;;19.20;55.30;;;;;;5071452;28;20171;-65
2023/03/31 13:05:36;;;;;;;2.00;1.23;;;19.10;55.60;;;;;;5072261;28;20179;-63
2023/03/31 13:08:05;;;;;;;1.97;1.40;;;19.10;55.80;;;;;;5065067;28;20223;-68
2023/03/31 13:10:33;;;;;;;3.80;1.30;;;19.00;56.20;;;;;;5069254;28;20214;-68
2023/03/31 13:13:12;;;;;;;1.57;1.17;;;19.00;56.30;;;;;;5071878;28;20199;-69
2023/03/31 13:15:40;;;;;;;4.83;1.40;;;18.90;56.80;;;;;;5071707;28;20232;-70
2023/03/31 13:18:17;;;;;;;2.57;1.13;;;18.80;56.70;;;;;;5071132;28;20660;-73
2023/03/31 13:20:45;;;;;;;2.73;1.57;;;18.80;57.20;;;;;;5074019;28;20257;-70
2023/03/31 13:23:21;;;;;;;2.20;1.27;;;18.80;56.40;;;;;;5076002;28;20236;-74
2023/03/31 13:25:52;;;;;;;3.53;1.37;;;18.70;56.90;;;;;;5074503;28;20201;-65